This is the latest recevied weather packets stored in our database for station/object KA0WKG. If no packets are shown the sender has not sent any weather packets the latest 10 day(s).
| Time | Temp. | Humidity | Pressure | Rain* | Wind** | Luminosity | Snow |
|---|---|---|---|---|---|---|---|
| 1777576206 | 12.22° C | 47% | 1020.4 hPa | 0 mm | - | - | - |
| 1777575308 | 11.67° C | 49% | 1020.6 hPa | 0 mm | - | - | - |
| 1777574707 | 12.22° C | 50% | 1020.6 hPa | 0 mm | - | - | - |
| 1777574407 | 12.22° C | 50% | 1020.7 hPa | 0 mm | - | - | - |
| 1777573506 | 12.22° C | 49% | 1020.8 hPa | 0 mm | - | - | - |
| 1777571706 | 12.78° C | 53% | 1021.2 hPa | 0 mm | - | - | - |
| 1777571407 | 12.22° C | 54% | 1021.1 hPa | 0 mm | - | - | - |
| 1777568406 | 11.11° C | 63% | 1021.6 hPa | 0 mm | - | - | - |
| 1777567806 | 10.56° C | 62% | 1021.6 hPa | 0 mm | - | - | - |
| 1777567206 | 10.56° C | 64% | 1021.7 hPa | 0 mm | - | - | - |
| 1777566605 | 10.56° C | 66% | 1021.6 hPa | 0 mm | - | - | - |
| 1777564806 | 8.89° C | 72% | 1021.6 hPa | 0 mm | - | - | - |
| 1777562406 | 7.78° C | 77% | 1021.5 hPa | 0 mm | - | - | - |
| 1777558806 | 6.67° C | 84% | 1021.5 hPa | 0 mm | - | - | - |
| 1777557307 | 6.11° C | 86% | 1021.4 hPa | 0 mm | - | - | - |
| 1777552505 | 3.33° C | 95% | 1020.7 hPa | 0 mm | - | - | - |
| 1777545904 | 4.44° C | 91% | 1020 hPa | 0 mm | - | - | - |
| 1777544105 | 4.44° C | 90% | 1020 hPa | 0 mm | - | - | - |
| 1777542905 | 4.44° C | 90% | 1020 hPa | 0 mm | - | - | - |
| 1777540806 | 4.44° C | 93% | 1019.8 hPa | 0 mm | - | - | - |
| 1777537204 | 3.89° C | 96% | 1019.6 hPa | 0 mm | - | - | - |
| 1777536004 | 3.89° C | 96% | 1019.8 hPa | 0 mm | - | - | - |
| 1777535704 | 3.89° C | 96% | 1019.8 hPa | 0 mm | - | - | - |
| 1777534503 | 4.44° C | 96% | 1020 hPa | 0 mm | - | - | - |
| 1777531204 | 3.33° C | 97% | 1020.2 hPa | 0 mm | - | - | - |
* Rain latest hour (hover to see other rain measurements)
** Current wind speed in m/s (hover to see current wind gust speed)